sensor_id;sensor_type;location;lat;lon;timestamp;noise_LAeq;noise_LA_min;noise_LA_max;noise_LA01;noise_LA95
77361;Laerm;66427;51.798;10.954;2023-08-24T00:01:38;33.39;29.27;49.45;;
77361;Laerm;66427;51.798;10.954;2023-08-24T00:04:04;30.66;28.84;35.67;;
77361;Laerm;66427;51.798;10.954;2023-08-24T00:06:29;29.65;28.55;34.48;;
77361;Laerm;66427;51.798;10.954;2023-08-24T00:08:54;46.75;28.63;62.14;;
77361;Laerm;66427;51.798;10.954;2023-08-24T00:11:20;30.57;28.59;44.15;;
77361;Laerm;66427;51.798;10.954;2023-08-24T00:13:45;30.61;28.95;48.74;;
77361;Laerm;66427;51.798;10.954;2023-08-24T00:16:15;47.59;28.77;62.48;;
77361;Laerm;66427;51.798;10.954;2023-08-24T00:18:41;31.08;29.21;37.83;;
77361;Laerm;66427;51.798;10.954;2023-08-24T00:21:07;35.62;29.19;46.56;;
77361;Laerm;66427;51.798;10.954;2023-08-24T00:23:33;34.71;29.96;44.19;;
77361;Laerm;66427;51.798;10.954;2023-08-24T00:26:01;31.60;29.29;43.73;;
77361;Laerm;66427;51.798;10.954;2023-08-24T00:28:26;32.34;30.38;37.01;;
77361;Laerm;66427;51.798;10.954;2023-08-24T00:30:51;34.15;31.17;41.64;;
77361;Laerm;66427;51.798;10.954;2023-08-24T00:33:17;33.14;30.40;37.33;;
77361;Laerm;66427;51.798;10.954;2023-08-24T00:35:42;34.82;31.85;39.69;;
77361;Laerm;66427;51.798;10.954;2023-08-24T00:38:08;32.92;30.40;35.71;;
77361;Laerm;66427;51.798;10.954;2023-08-24T00:40:33;33.82;30.71;42.96;;
77361;Laerm;66427;51.798;10.954;2023-08-24T00:42:59;33.15;29.90;44.48;;
77361;Laerm;66427;51.798;10.954;2023-08-24T00:45:25;31.66;29.51;40.03;;
77361;Laerm;66427;51.798;10.954;2023-08-24T00:47:50;30.08;28.23;35.00;;
77361;Laerm;66427;51.798;10.954;2023-08-24T00:50:17;28.66;27.64;31.45;;
77361;Laerm;66427;51.798;10.954;2023-08-24T00:52:43;28.16;27.41;29.61;;
77361;Laerm;66427;51.798;10.954;2023-08-24T00:55:08;29.06;27.56;38.96;;
77361;Laerm;66427;51.798;10.954;2023-08-24T00:57:37;29.25;27.71;36.04;;
77361;Laerm;66427;51.798;10.954;2023-08-24T01:00:04;29.07;27.52;36.57;;
77361;Laerm;66427;51.798;10.954;2023-08-24T01:02:34;29.05;27.77;35.24;;
77361;Laerm;66427;51.798;10.954;2023-08-24T01:05:00;30.41;27.79;37.30;;
77361;Laerm;66427;51.798;10.954;2023-08-24T01:07:25;30.39;28.13;41.82;;
77361;Laerm;66427;51.798;10.954;2023-08-24T01:09:51;28.80;27.86;31.98;;
77361;Laerm;66427;51.798;10.954;2023-08-24T01:14:58;28.89;27.84;32.19;;
77361;Laerm;66427;51.798;10.954;2023-08-24T01:17:27;45.16;27.94;62.56;;
77361;Laerm;66427;51.798;10.954;2023-08-24T01:19:54;28.48;27.57;30.48;;
77361;Laerm;66427;51.798;10.954;2023-08-24T01:22:23;28.33;27.54;35.09;;
77361;Laerm;66427;51.798;10.954;2023-08-24T01:27:25;30.45;28.14;37.46;;
77361;Laerm;66427;51.798;10.954;2023-08-24T01:29:52;30.73;28.12;46.98;;
77361;Laerm;66427;51.798;10.954;2023-08-24T01:32:17;30.51;28.64;38.67;;
77361;Laerm;66427;51.798;10.954;2023-08-24T01:34:43;29.09;28.14;34.13;;
77361;Laerm;66427;51.798;10.954;2023-08-24T01:37:08;30.15;28.07;36.43;;
77361;Laerm;66427;51.798;10.954;2023-08-24T01:39:46;29.85;28.20;42.99;;
77361;Laerm;66427;51.798;10.954;2023-08-24T01:42:13;30.10;27.81;37.47;;
77361;Laerm;66427;51.798;10.954;2023-08-24T01:44:42;34.92;29.39;45.10;;
77361;Laerm;66427;51.798;10.954;2023-08-24T01:47:12;34.92;28.55;56.39;;
77361;Laerm;66427;51.798;10.954;2023-08-24T01:49:37;29.79;27.93;35.35;;
77361;Laerm;66427;51.798;10.954;2023-08-24T01:52:04;32.01;29.24;38.28;;
77361;Laerm;66427;51.798;10.954;2023-08-24T01:54:29;30.04;28.39;32.63;;
77361;Laerm;66427;51.798;10.954;2023-08-24T01:56:56;31.39;28.42;52.01;;
77361;Laerm;66427;51.798;10.954;2023-08-24T01:59:21;31.37;29.19;39.84;;
77361;Laerm;66427;51.798;10.954;2023-08-24T02:01:46;32.23;29.31;37.64;;
77361;Laerm;66427;51.798;10.954;2023-08-24T02:04:12;31.15;29.01;42.02;;
77361;Laerm;66427;51.798;10.954;2023-08-24T02:06:37;31.17;29.17;34.83;;
77361;Laerm;66427;51.798;10.954;2023-08-24T02:09:02;32.54;29.58;38.66;;
77361;Laerm;66427;51.798;10.954;2023-08-24T02:11:28;30.86;29.33;33.81;;
77361;Laerm;66427;51.798;10.954;2023-08-24T02:13:53;32.00;29.84;40.77;;
77361;Laerm;66427;51.798;10.954;2023-08-24T02:16:18;32.66;29.43;36.76;;
77361;Laerm;66427;51.798;10.954;2023-08-24T02:18:44;33.83;28.76;58.38;;
77361;Laerm;66427;51.798;10.954;2023-08-24T02:21:10;32.36;28.96;46.80;;
77361;Laerm;66427;51.798;10.954;2023-08-24T02:23:36;32.47;29.46;38.33;;
77361;Laerm;66427;51.798;10.954;2023-08-24T02:26:02;31.65;29.75;36.32;;
77361;Laerm;66427;51.798;10.954;2023-08-24T02:28:28;30.47;28.82;35.57;;
77361;Laerm;66427;51.798;10.954;2023-08-24T02:30:53;31.70;29.37;38.22;;
77361;Laerm;66427;51.798;10.954;2023-08-24T02:33:19;38.20;29.29;47.00;;
77361;Laerm;66427;51.798;10.954;2023-08-24T02:35:46;37.64;29.87;45.57;;
77361;Laerm;66427;51.798;10.954;2023-08-24T02:38:12;32.53;30.15;37.23;;
77361;Laerm;66427;51.798;10.954;2023-08-24T02:40:37;35.21;31.33;41.59;;
77361;Laerm;66427;51.798;10.954;2023-08-24T02:43:02;33.21;29.81;41.51;;
77361;Laerm;66427;51.798;10.954;2023-08-24T02:45:28;31.50;29.07;40.65;;
77361;Laerm;66427;51.798;10.954;2023-08-24T02:47:53;31.35;29.27;36.71;;
77361;Laerm;66427;51.798;10.954;2023-08-24T02:50:19;32.54;29.44;43.88;;
77361;Laerm;66427;51.798;10.954;2023-08-24T02:52:44;32.96;29.55;42.03;;
77361;Laerm;66427;51.798;10.954;2023-08-24T02:55:10;33.52;30.43;38.50;;
77361;Laerm;66427;51.798;10.954;2023-08-24T02:57:36;33.49;30.52;40.44;;
77361;Laerm;66427;51.798;10.954;2023-08-24T03:00:01;33.88;30.25;39.50;;
77361;Laerm;66427;51.798;10.954;2023-08-24T03:02:28;32.71;30.46;37.39;;
77361;Laerm;66427;51.798;10.954;2023-08-24T03:04:53;32.86;29.75;53.08;;
77361;Laerm;66427;51.798;10.954;2023-08-24T03:07:20;41.49;30.30;68.99;;
77361;Laerm;66427;51.798;10.954;2023-08-24T03:09:45;34.63;29.88;48.42;;
77361;Laerm;66427;51.798;10.954;2023-08-24T03:12:11;35.27;30.79;52.13;;
77361;Laerm;66427;51.798;10.954;2023-08-24T03:14:37;33.57;31.63;37.66;;
77361;Laerm;66427;51.798;10.954;2023-08-24T03:17:02;35.22;31.74;45.04;;
77361;Laerm;66427;51.798;10.954;2023-08-24T03:19:29;44.60;30.81;58.95;;
77361;Laerm;66427;51.798;10.954;2023-08-24T03:21:54;54.84;32.15;71.24;;
77361;Laerm;66427;51.798;10.954;2023-08-24T03:24:20;39.90;33.25;56.06;;
77361;Laerm;66427;51.798;10.954;2023-08-24T03:26:45;52.27;33.31;70.27;;
77361;Laerm;66427;51.798;10.954;2023-08-24T03:29:10;48.14;31.25;61.10;;
77361;Laerm;66427;51.798;10.954;2023-08-24T03:31:36;42.59;32.63;55.73;;
77361;Laerm;66427;51.798;10.954;2023-08-24T03:34:01;37.66;33.94;50.21;;
77361;Laerm;66427;51.798;10.954;2023-08-24T03:36:28;36.66;34.09;50.24;;
77361;Laerm;66427;51.798;10.954;2023-08-24T03:38:54;36.05;33.38;43.65;;
77361;Laerm;66427;51.798;10.954;2023-08-24T03:41:19;38.94;33.58;53.13;;
77361;Laerm;66427;51.798;10.954;2023-08-24T03:43:44;47.26;33.56;58.90;;
77361;Laerm;66427;51.798;10.954;2023-08-24T03:46:10;37.98;34.48;48.85;;
77361;Laerm;66427;51.798;10.954;2023-08-24T03:48:35;46.26;33.38;62.10;;
77361;Laerm;66427;51.798;10.954;2023-08-24T03:51:00;51.24;33.97;66.23;;
77361;Laerm;66427;51.798;10.954;2023-08-24T03:53:26;50.37;33.75;63.12;;
77361;Laerm;66427;51.798;10.954;2023-08-24T03:55:51;50.16;32.90;63.94;;
77361;Laerm;66427;51.798;10.954;2023-08-24T03:58:17;53.72;33.65;71.13;;
77361;Laerm;66427;51.798;10.954;2023-08-24T04:00:43;45.49;32.92;60.63;;
77361;Laerm;66427;51.798;10.954;2023-08-24T04:03:08;51.73;36.02;68.41;;
77361;Laerm;66427;51.798;10.954;2023-08-24T04:05:34;44.02;35.64;59.35;;
77361;Laerm;66427;51.798;10.954;2023-08-24T04:07:59;44.14;37.84;57.33;;
77361;Laerm;66427;51.798;10.954;2023-08-24T04:10:26;57.13;37.29;73.81;;
77361;Laerm;66427;51.798;10.954;2023-08-24T04:12:51;47.36;36.68;62.04;;
77361;Laerm;66427;51.798;10.954;2023-08-24T04:15:16;41.10;35.71;45.83;;
77361;Laerm;66427;51.798;10.954;2023-08-24T04:17:42;51.50;35.55;65.61;;
77361;Laerm;66427;51.798;10.954;2023-08-24T04:20:08;51.04;36.69;67.81;;
77361;Laerm;66427;51.798;10.954;2023-08-24T04:22:33;63.16;36.85;85.59;;
77361;Laerm;66427;51.798;10.954;2023-08-24T04:24:59;52.15;37.04;65.73;;
77361;Laerm;66427;51.798;10.954;2023-08-24T04:27:25;52.10;36.77;65.31;;
77361;Laerm;66427;51.798;10.954;2023-08-24T04:29:50;51.05;36.11;64.95;;
77361;Laerm;66427;51.798;10.954;2023-08-24T04:32:15;53.85;36.61;66.15;;
77361;Laerm;66427;51.798;10.954;2023-08-24T04:34:41;49.92;36.56;65.94;;
77361;Laerm;66427;51.798;10.954;2023-08-24T04:37:06;43.24;36.76;49.08;;
77361;Laerm;66427;51.798;10.954;2023-08-24T04:39:32;57.37;38.40;72.85;;
77361;Laerm;66427;51.798;10.954;2023-08-24T04:41:57;50.94;37.66;65.67;;
77361;Laerm;66427;51.798;10.954;2023-08-24T04:44:23;52.02;38.10;66.26;;
77361;Laerm;66427;51.798;10.954;2023-08-24T04:46:49;53.19;37.11;66.14;;
77361;Laerm;66427;51.798;10.954;2023-08-24T04:49:14;51.06;37.09;64.77;;
77361;Laerm;66427;51.798;10.954;2023-08-24T04:51:40;51.78;37.75;62.50;;
77361;Laerm;66427;51.798;10.954;2023-08-24T04:54:05;54.83;38.66;66.21;;
77361;Laerm;66427;51.798;10.954;2023-08-24T04:56:31;50.96;38.26;65.54;;
77361;Laerm;66427;51.798;10.954;2023-08-24T04:58:56;56.88;37.80;74.04;;
77361;Laerm;66427;51.798;10.954;2023-08-24T05:01:22;51.99;37.65;68.28;;
77361;Laerm;66427;51.798;10.954;2023-08-24T05:03:48;51.46;37.45;64.10;;
77361;Laerm;66427;51.798;10.954;2023-08-24T05:06:13;61.89;37.69;75.94;;
77361;Laerm;66427;51.798;10.954;2023-08-24T05:08:38;57.95;37.81;80.34;;
77361;Laerm;66427;51.798;10.954;2023-08-24T05:11:13;58.43;37.58;69.87;;
77361;Laerm;66427;51.798;10.954;2023-08-24T05:13:40;56.31;36.14;69.00;;
77361;Laerm;66427;51.798;10.954;2023-08-24T05:16:05;56.30;38.55;67.97;;
77361;Laerm;66427;51.798;10.954;2023-08-24T05:18:30;57.01;39.53;69.44;;
77361;Laerm;66427;51.798;10.954;2023-08-24T05:20:56;48.54;38.25;62.29;;
77361;Laerm;66427;51.798;10.954;2023-08-24T05:23:21;56.77;38.04;73.17;;
77361;Laerm;66427;51.798;10.954;2023-08-24T05:25:46;63.63;40.40;78.57;;
77361;Laerm;66427;51.798;10.954;2023-08-24T05:28:12;58.74;44.35;66.07;;
77361;Laerm;66427;51.798;10.954;2023-08-24T05:30:37;57.61;41.28;71.39;;
77361;Laerm;66427;51.798;10.954;2023-08-24T05:33:02;70.77;54.34;79.60;;
77361;Laerm;66427;51.798;10.954;2023-08-24T05:35:28;57.67;45.44;68.21;;
77361;Laerm;66427;51.798;10.954;2023-08-24T05:37:53;59.21;38.56;72.63;;
77361;Laerm;66427;51.798;10.954;2023-08-24T05:40:19;56.47;39.25;69.20;;
77361;Laerm;66427;51.798;10.954;2023-08-24T05:42:44;52.97;39.20;66.58;;
77361;Laerm;66427;51.798;10.954;2023-08-24T05:45:09;54.40;39.38;67.15;;
77361;Laerm;66427;51.798;10.954;2023-08-24T05:47:35;53.66;40.23;68.79;;
77361;Laerm;66427;51.798;10.954;2023-08-24T05:50:00;73.65;46.63;84.94;;
77361;Laerm;66427;51.798;10.954;2023-08-24T05:52:26;58.58;39.85;69.32;;
77361;Laerm;66427;51.798;10.954;2023-08-24T05:54:52;48.95;38.44;62.09;;
77361;Laerm;66427;51.798;10.954;2023-08-24T05:57:17;51.78;41.17;64.13;;
77361;Laerm;66427;51.798;10.954;2023-08-24T05:59:42;54.37;39.85;68.09;;
77361;Laerm;66427;51.798;10.954;2023-08-24T06:02:08;55.47;41.38;68.49;;
77361;Laerm;66427;51.798;10.954;2023-08-24T06:04:33;51.18;39.24;61.03;;
77361;Laerm;66427;51.798;10.954;2023-08-24T06:06:58;54.47;40.33;69.48;;
77361;Laerm;66427;51.798;10.954;2023-08-24T06:09:24;56.17;39.76;72.76;;
77361;Laerm;66427;51.798;10.954;2023-08-24T06:11:49;54.28;39.82;65.49;;
77361;Laerm;66427;51.798;10.954;2023-08-24T06:14:14;52.99;37.57;68.05;;
77361;Laerm;66427;51.798;10.954;2023-08-24T06:16:40;53.74;39.88;65.97;;
77361;Laerm;66427;51.798;10.954;2023-08-24T06:19:05;54.88;40.43;69.16;;
77361;Laerm;66427;51.798;10.954;2023-08-24T06:21:31;57.69;38.00;74.21;;
77361;Laerm;66427;51.798;10.954;2023-08-24T06:23:56;52.69;38.30;67.70;;
77361;Laerm;66427;51.798;10.954;2023-08-24T06:26:21;54.38;37.80;66.48;;
77361;Laerm;66427;51.798;10.954;2023-08-24T06:28:47;56.22;40.03;66.91;;
77361;Laerm;66427;51.798;10.954;2023-08-24T06:31:12;63.93;39.21;77.41;;
77361;Laerm;66427;51.798;10.954;2023-08-24T06:33:38;57.14;40.11;72.71;;
77361;Laerm;66427;51.798;10.954;2023-08-24T06:36:03;40.59;36.62;53.69;;
77361;Laerm;66427;51.798;10.954;2023-08-24T06:38:31;51.26;37.28;65.21;;
77361;Laerm;66427;51.798;10.954;2023-08-24T06:40:57;54.18;39.16;66.81;;
77361;Laerm;66427;51.798;10.954;2023-08-24T06:43:22;48.88;38.52;62.57;;
77361;Laerm;66427;51.798;10.954;2023-08-24T06:45:48;66.25;37.57;87.64;;
77361;Laerm;66427;51.798;10.954;2023-08-24T06:48:13;53.67;37.41;66.86;;
77361;Laerm;66427;51.798;10.954;2023-08-24T06:50:38;53.95;36.95;67.41;;
77361;Laerm;66427;51.798;10.954;2023-08-24T06:53:04;52.04;35.22;64.53;;
77361;Laerm;66427;51.798;10.954;2023-08-24T06:55:29;59.13;37.44;76.29;;
77361;Laerm;66427;51.798;10.954;2023-08-24T06:57:55;53.40;37.34;66.14;;
77361;Laerm;66427;51.798;10.954;2023-08-24T07:00:20;55.37;36.54;68.78;;
77361;Laerm;66427;51.798;10.954;2023-08-24T07:02:46;61.25;35.24;78.54;;
77361;Laerm;66427;51.798;10.954;2023-08-24T07:05:12;55.47;36.04;70.88;;
77361;Laerm;66427;51.798;10.954;2023-08-24T07:07:38;56.93;38.57;65.61;;
77361;Laerm;66427;51.798;10.954;2023-08-24T07:10:03;49.19;36.95;63.37;;
77361;Laerm;66427;51.798;10.954;2023-08-24T07:12:29;59.64;35.53;75.01;;
77361;Laerm;66427;51.798;10.954;2023-08-24T07:14:54;41.05;36.53;54.67;;
77361;Laerm;66427;51.798;10.954;2023-08-24T07:17:19;50.32;38.06;63.01;;
77361;Laerm;66427;51.798;10.954;2023-08-24T07:19:45;59.08;42.65;72.91;;
77361;Laerm;66427;51.798;10.954;2023-08-24T07:22:10;52.44;37.88;65.56;;
77361;Laerm;66427;51.798;10.954;2023-08-24T07:24:36;51.38;38.35;64.49;;
77361;Laerm;66427;51.798;10.954;2023-08-24T07:27:02;53.12;37.38;63.82;;
77361;Laerm;66427;51.798;10.954;2023-08-24T07:29:28;47.48;38.44;61.49;;
77361;Laerm;66427;51.798;10.954;2023-08-24T07:31:53;54.86;38.16;67.18;;
77361;Laerm;66427;51.798;10.954;2023-08-24T07:34:19;52.56;40.12;65.62;;
77361;Laerm;66427;51.798;10.954;2023-08-24T07:36:44;55.57;41.85;69.92;;
77361;Laerm;66427;51.798;10.954;2023-08-24T07:39:11;52.80;39.88;65.10;;
77361;Laerm;66427;51.798;10.954;2023-08-24T07:41:37;53.00;41.85;67.30;;
77361;Laerm;66427;51.798;10.954;2023-08-24T07:44:03;51.79;41.22;63.71;;
77361;Laerm;66427;51.798;10.954;2023-08-24T07:46:28;52.16;42.61;64.60;;
77361;Laerm;66427;51.798;10.954;2023-08-24T07:48:53;54.14;40.09;65.52;;
77361;Laerm;66427;51.798;10.954;2023-08-24T07:51:19;53.22;41.08;64.52;;
77361;Laerm;66427;51.798;10.954;2023-08-24T07:53:44;53.76;41.37;65.02;;
77361;Laerm;66427;51.798;10.954;2023-08-24T07:56:10;52.98;41.37;63.59;;
77361;Laerm;66427;51.798;10.954;2023-08-24T07:58:35;57.37;43.41;66.10;;
77361;Laerm;66427;51.798;10.954;2023-08-24T08:01:01;55.47;42.63;67.73;;
77361;Laerm;66427;51.798;10.954;2023-08-24T08:03:26;54.69;42.56;70.32;;
77361;Laerm;66427;51.798;10.954;2023-08-24T08:05:52;50.03;37.56;63.32;;
77361;Laerm;66427;51.798;10.954;2023-08-24T08:08:17;54.19;38.48;68.59;;
77361;Laerm;66427;51.798;10.954;2023-08-24T08:10:43;55.74;40.10;69.44;;
77361;Laerm;66427;51.798;10.954;2023-08-24T08:13:08;60.98;37.95;76.09;;
77361;Laerm;66427;51.798;10.954;2023-08-24T08:15:36;54.47;37.53;70.34;;
77361;Laerm;66427;51.798;10.954;2023-08-24T08:18:03;55.03;39.94;67.73;;
77361;Laerm;66427;51.798;10.954;2023-08-24T08:20:28;58.17;40.49;67.19;;
77361;Laerm;66427;51.798;10.954;2023-08-24T08:22:54;61.34;41.56;81.45;;
77361;Laerm;66427;51.798;10.954;2023-08-24T08:25:19;52.04;41.74;63.98;;
77361;Laerm;66427;51.798;10.954;2023-08-24T08:27:47;53.50;39.09;74.12;;
77361;Laerm;66427;51.798;10.954;2023-08-24T08:30:12;54.51;39.93;69.29;;
77361;Laerm;66427;51.798;10.954;2023-08-24T08:32:38;52.43;41.40;63.37;;
77361;Laerm;66427;51.798;10.954;2023-08-24T08:35:03;65.85;41.03;85.27;;
77361;Laerm;66427;51.798;10.954;2023-08-24T08:37:32;52.77;39.75;63.94;;
77361;Laerm;66427;51.798;10.954;2023-08-24T08:39:57;50.10;39.05;62.82;;
77361;Laerm;66427;51.798;10.954;2023-08-24T08:42:22;49.67;36.61;65.17;;
77361;Laerm;66427;51.798;10.954;2023-08-24T08:44:48;50.09;37.86;61.95;;
77361;Laerm;66427;51.798;10.954;2023-08-24T08:47:14;55.38;39.16;65.84;;
77361;Laerm;66427;51.798;10.954;2023-08-24T08:49:40;54.39;38.17;67.52;;
77361;Laerm;66427;51.798;10.954;2023-08-24T08:52:07;56.01;37.57;67.95;;
77361;Laerm;66427;51.798;10.954;2023-08-24T08:54:32;51.74;37.52;66.45;;
77361;Laerm;66427;51.798;10.954;2023-08-24T08:56:58;52.56;40.85;69.49;;
77361;Laerm;66427;51.798;10.954;2023-08-24T08:59:24;54.83;42.49;63.68;;
77361;Laerm;66427;51.798;10.954;2023-08-24T09:01:54;61.59;38.30;78.67;;
77361;Laerm;66427;51.798;10.954;2023-08-24T09:04:20;53.80;38.95;66.02;;
77361;Laerm;66427;51.798;10.954;2023-08-24T09:06:45;54.60;40.66;69.85;;
77361;Laerm;66427;51.798;10.954;2023-08-24T09:09:11;48.13;39.76;63.50;;
77361;Laerm;66427;51.798;10.954;2023-08-24T09:11:37;54.68;38.18;66.90;;
77361;Laerm;66427;51.798;10.954;2023-08-24T09:14:04;53.14;38.50;69.18;;
77361;Laerm;66427;51.798;10.954;2023-08-24T09:16:29;54.62;38.53;65.94;;
77361;Laerm;66427;51.798;10.954;2023-08-24T09:18:55;53.06;38.27;66.00;;
77361;Laerm;66427;51.798;10.954;2023-08-24T09:21:20;59.56;43.41;71.54;;
77361;Laerm;66427;51.798;10.954;2023-08-24T09:23:55;55.72;38.26;69.60;;
77361;Laerm;66427;51.798;10.954;2023-08-24T09:26:30;52.73;38.70;66.12;;
77361;Laerm;66427;51.798;10.954;2023-08-24T09:28:55;52.79;40.00;66.31;;
77361;Laerm;66427;51.798;10.954;2023-08-24T09:31:21;53.96;42.24;64.84;;
77361;Laerm;66427;51.798;10.954;2023-08-24T09:33:47;54.70;40.37;69.82;;
77361;Laerm;66427;51.798;10.954;2023-08-24T09:36:16;53.58;38.24;64.07;;
77361;Laerm;66427;51.798;10.954;2023-08-24T09:38:48;48.53;40.00;62.76;;
77361;Laerm;66427;51.798;10.954;2023-08-24T09:41:17;54.21;40.48;68.08;;
77361;Laerm;66427;51.798;10.954;2023-08-24T09:43:42;53.26;39.60;64.69;;
77361;Laerm;66427;51.798;10.954;2023-08-24T09:46:07;49.06;43.74;56.32;;
77361;Laerm;66427;51.798;10.954;2023-08-24T09:48:33;55.95;45.24;65.13;;
77361;Laerm;66427;51.798;10.954;2023-08-24T09:50:58;56.14;45.32;66.10;;
77361;Laerm;66427;51.798;10.954;2023-08-24T09:53:25;57.33;39.34;69.06;;
77361;Laerm;66427;51.798;10.954;2023-08-24T09:55:54;57.11;44.74;74.16;;
77361;Laerm;66427;51.798;10.954;2023-08-24T09:58:23;51.82;45.68;62.00;;
77361;Laerm;66427;51.798;10.954;2023-08-24T10:00:48;61.36;43.42;77.52;;
77361;Laerm;66427;51.798;10.954;2023-08-24T10:03:21;54.29;40.75;65.99;;
77361;Laerm;66427;51.798;10.954;2023-08-24T10:05:53;55.58;40.34;70.84;;
77361;Laerm;66427;51.798;10.954;2023-08-24T10:08:20;52.44;37.35;65.06;;
77361;Laerm;66427;51.798;10.954;2023-08-24T10:10:46;51.44;36.17;65.00;;
77361;Laerm;66427;51.798;10.954;2023-08-24T10:13:14;53.42;36.79;64.51;;
77361;Laerm;66427;51.798;10.954;2023-08-24T10:15:42;50.42;35.68;68.16;;
77361;Laerm;66427;51.798;10.954;2023-08-24T10:18:11;51.13;36.05;62.84;;
77361;Laerm;66427;51.798;10.954;2023-08-24T10:20:38;51.86;36.00;66.49;;
77361;Laerm;66427;51.798;10.954;2023-08-24T10:23:03;55.59;35.98;65.99;;
77361;Laerm;66427;51.798;10.954;2023-08-24T10:25:29;62.42;38.10;76.32;;
77361;Laerm;66427;51.798;10.954;2023-08-24T10:27:54;53.82;35.26;67.33;;
77361;Laerm;66427;51.798;10.954;2023-08-24T10:30:22;55.68;36.56;68.57;;
77361;Laerm;66427;51.798;10.954;2023-08-24T10:32:48;54.48;36.21;66.42;;
77361;Laerm;66427;51.798;10.954;2023-08-24T10:35:15;57.69;36.91;71.13;;
77361;Laerm;66427;51.798;10.954;2023-08-24T10:37:41;53.20;36.35;66.41;;
77361;Laerm;66427;51.798;10.954;2023-08-24T10:40:10;57.46;34.85;76.83;;
77361;Laerm;66427;51.798;10.954;2023-08-24T10:42:44;54.97;37.36;66.18;;
77361;Laerm;66427;51.798;10.954;2023-08-24T10:45:11;49.49;34.88;62.27;;
77361;Laerm;66427;51.798;10.954;2023-08-24T10:47:43;50.68;35.53;65.09;;
77361;Laerm;66427;51.798;10.954;2023-08-24T10:50:10;54.63;38.97;68.16;;
77361;Laerm;66427;51.798;10.954;2023-08-24T10:52:37;54.52;38.83;64.89;;
77361;Laerm;66427;51.798;10.954;2023-08-24T10:55:21;48.35;38.56;61.26;;
77361;Laerm;66427;51.798;10.954;2023-08-24T10:57:51;58.12;38.33;73.94;;
77361;Laerm;66427;51.798;10.954;2023-08-24T11:00:20;53.71;38.10;68.62;;
77361;Laerm;66427;51.798;10.954;2023-08-24T11:02:52;61.36;40.08;76.53;;
77361;Laerm;66427;51.798;10.954;2023-08-24T11:05:21;52.89;40.08;64.57;;
77361;Laerm;66427;51.798;10.954;2023-08-24T11:07:55;52.99;39.33;66.46;;
77361;Laerm;66427;51.798;10.954;2023-08-24T11:10:24;50.10;39.88;61.83;;
77361;Laerm;66427;51.798;10.954;2023-08-24T11:13:09;67.80;36.69;78.81;;
77361;Laerm;66427;51.798;10.954;2023-08-24T11:20:51;52.83;40.95;65.24;;
77361;Laerm;66427;51.798;10.954;2023-08-24T11:23:16;51.09;39.03;64.87;;
77361;Laerm;66427;51.798;10.954;2023-08-24T11:25:42;53.29;42.53;65.43;;
77361;Laerm;66427;51.798;10.954;2023-08-24T11:28:07;54.74;42.35;66.82;;
77361;Laerm;66427;51.798;10.954;2023-08-24T11:30:33;54.91;41.72;66.80;;
77361;Laerm;66427;51.798;10.954;2023-08-24T11:32:58;54.74;41.53;68.99;;
77361;Laerm;66427;51.798;10.954;2023-08-24T11:35:24;55.98;39.68;73.83;;
77361;Laerm;66427;51.798;10.954;2023-08-24T11:37:51;53.38;41.88;64.29;;
77361;Laerm;66427;51.798;10.954;2023-08-24T11:40:17;51.64;34.99;69.12;;
77361;Laerm;66427;51.798;10.954;2023-08-24T11:42:42;55.65;36.18;68.30;;
77361;Laerm;66427;51.798;10.954;2023-08-24T11:45:11;56.90;39.29;68.98;;
77361;Laerm;66427;51.798;10.954;2023-08-24T11:47:37;58.37;40.45;71.63;;
77361;Laerm;66427;51.798;10.954;2023-08-24T11:50:03;55.77;39.53;68.77;;
77361;Laerm;66427;51.798;10.954;2023-08-24T11:52:29;60.79;35.11;83.24;;
77361;Laerm;66427;51.798;10.954;2023-08-24T11:54:54;61.80;39.10;78.79;;
77361;Laerm;66427;51.798;10.954;2023-08-24T11:57:20;53.93;36.27;66.05;;
77361;Laerm;66427;51.798;10.954;2023-08-24T11:59:45;63.55;39.92;78.42;;
77361;Laerm;66427;51.798;10.954;2023-08-24T12:02:11;57.90;36.80;74.92;;
77361;Laerm;66427;51.798;10.954;2023-08-24T12:04:40;55.03;34.15;69.09;;
77361;Laerm;66427;51.798;10.954;2023-08-24T12:07:10;53.68;37.05;63.47;;
77361;Laerm;66427;51.798;10.954;2023-08-24T12:09:37;55.75;34.90;77.29;;
77361;Laerm;66427;51.798;10.954;2023-08-24T12:12:02;49.99;34.38;62.83;;
77361;Laerm;66427;51.798;10.954;2023-08-24T12:14:29;45.99;35.10;60.14;;
77361;Laerm;66427;51.798;10.954;2023-08-24T12:17:07;51.38;34.36;63.79;;
77361;Laerm;66427;51.798;10.954;2023-08-24T12:19:33;59.58;37.59;75.66;;
77361;Laerm;66427;51.798;10.954;2023-08-24T12:21:59;51.99;37.06;67.15;;
77361;Laerm;66427;51.798;10.954;2023-08-24T12:24:24;51.94;36.43;63.01;;
77361;Laerm;66427;51.798;10.954;2023-08-24T12:26:56;54.09;37.03;68.61;;
77361;Laerm;66427;51.798;10.954;2023-08-24T12:29:22;55.67;37.59;66.42;;
77361;Laerm;66427;51.798;10.954;2023-08-24T12:31:48;53.32;38.02;67.06;;
77361;Laerm;66427;51.798;10.954;2023-08-24T12:34:14;56.84;37.26;73.42;;
77361;Laerm;66427;51.798;10.954;2023-08-24T12:36:40;48.75;36.88;61.74;;
77361;Laerm;66427;51.798;10.954;2023-08-24T12:39:06;56.40;37.88;70.35;;
77361;Laerm;66427;51.798;10.954;2023-08-24T12:41:33;55.22;40.86;65.24;;
77361;Laerm;66427;51.798;10.954;2023-08-24T12:43:58;54.29;39.12;64.39;;
77361;Laerm;66427;51.798;10.954;2023-08-24T12:46:24;51.69;39.35;66.15;;
77361;Laerm;66427;51.798;10.954;2023-08-24T12:48:50;53.69;39.21;65.44;;
77361;Laerm;66427;51.798;10.954;2023-08-24T12:51:15;55.43;44.97;66.36;;
77361;Laerm;66427;51.798;10.954;2023-08-24T12:53:41;65.82;43.27;86.28;;
77361;Laerm;66427;51.798;10.954;2023-08-24T12:56:06;57.82;46.40;69.38;;
77361;Laerm;66427;51.798;10.954;2023-08-24T12:58:32;55.82;42.66;67.39;;
77361;Laerm;66427;51.798;10.954;2023-08-24T13:00:58;49.26;40.44;59.91;;
77361;Laerm;66427;51.798;10.954;2023-08-24T13:03:23;57.04;41.97;66.81;;
77361;Laerm;66427;51.798;10.954;2023-08-24T13:05:48;57.98;41.33;70.02;;
77361;Laerm;66427;51.798;10.954;2023-08-24T13:08:14;59.15;41.41;71.99;;
77361;Laerm;66427;51.798;10.954;2023-08-24T13:10:39;50.85;39.70;62.93;;
77361;Laerm;66427;51.798;10.954;2023-08-24T13:13:05;52.89;39.41;66.56;;
77361;Laerm;66427;51.798;10.954;2023-08-24T13:15:30;56.48;40.49;69.94;;
77361;Laerm;66427;51.798;10.954;2023-08-24T13:17:55;57.74;43.20;70.89;;
77361;Laerm;66427;51.798;10.954;2023-08-24T13:20:22;53.67;39.53;65.36;;
77361;Laerm;66427;51.798;10.954;2023-08-24T13:22:47;47.77;38.59;60.42;;
77361;Laerm;66427;51.798;10.954;2023-08-24T13:25:12;52.93;38.44;64.35;;
77361;Laerm;66427;51.798;10.954;2023-08-24T13:27:38;54.33;37.96;70.62;;
77361;Laerm;66427;51.798;10.954;2023-08-24T13:30:03;52.01;40.21;63.62;;
77361;Laerm;66427;51.798;10.954;2023-08-24T13:32:29;54.25;39.19;65.07;;
77361;Laerm;66427;51.798;10.954;2023-08-24T13:34:54;57.27;39.65;72.47;;
77361;Laerm;66427;51.798;10.954;2023-08-24T13:37:21;51.78;39.06;65.08;;